Latest Coastal Weather Observations for Robe Airport

IDS60701

Issued at 4:31 pm CDT Monday 6 December 2021 (issued every 10 minutes, with the page automatically refreshed every 10 minutes)

About coastal observations | Map of coastal stations | Coastal observations for SA | Marine services | Other Formats
Station Details ID: 026105 Name: ROBE AIRFIELD Lat: -37.18 Lon: 139.81 Height: 3.0 m
Data from the previous 72 hours. | See also: Recent months at Robe Airport
Date/Time
CDT
Wind Sea
Height
m
Swell Vis
km
Cloud Weather Temp
°C
Press
MSL
hPa
Rain since
9am
mm
Dir  Spd
kts
Gust
kts
Height
m
Period
s
Dir
06/04:30pm WSW 11 17 - - - - - - - 17.8 1011.8 0.0
06/04:00pm SW 12 19 - - - - - - - 17.7 1011.7 0.0
06/03:30pm SW 13 19 - - - - - - - 16.9 1011.9 0.0
06/03:00pm SW 12 18 - - - - - - - 17.8 1011.6 0.0
06/02:30pm WSW 11 19 - - - - - - - 17.9 1011.6 0.0
06/02:00pm WSW 10 16 - - - - - - - 18.2 1011.7 0.0
06/01:30pm WSW 8 12 - - - - - - - 18.7 1011.6 0.0
06/01:00pm WSW 10 16 - - - - - - - 17.6 1011.9 0.0
06/12:30pm W 10 15 - - - - - - - 18.5 1011.9 0.0
06/12:00pm WNW 8 13 - - - - - - - 18.8 1011.8 0.0
06/11:30am WNW 10 15 - - - - - - - 18.2 1011.9 0.0
06/11:00am NW 9 13 - - - - - - - 18.8 1011.8 0.0
06/10:30am NW 11 16 - - - - - - - 18.8 1012.0 0.0
06/10:00am NW 9 13 - - - - - - - 18.3 1012.0 0.0
06/09:30am NW 7 8 - - - - - - - 17.1 1012.1 0.0
06/09:00am NNW 6 8 - - - - - - - 17.0 1012.5 0.0
06/08:30am NW 4 6 - - - - - - - 15.7 1012.5 0.0
06/08:00am WNW 4 6 - - - - - - - 14.5 1012.9 0.0
06/07:30am WNW 3 5 - - - - - - - 12.4 1012.9 0.0
06/07:00am SSE 2 5 - - - - - - - 10.8 1012.7 0.0
06/06:30am SE 2 3 - - - - - - - 9.8 1012.3 0.0
06/06:00am ESE 3 3 - - - - - - - 8.6 1012.2 0.0
06/05:30am SE 3 4 - - - - - - - 8.7 1012.1 0.0
06/05:00am SE 2 3 - - - - - - - 8.7 1012.1 0.0
06/04:30am SE 2 4 - - - - - - - 8.9 1012.2 0.0
06/04:00am SE 3 5 - - - - - - - 9.0 1012.6 0.0
06/03:30am SE 4 5 - - - - - - - 9.5 1012.9 0.0
06/03:00am SE 4 5 - - - - - - - 9.9 1013.1 0.0
06/02:30am SE 5 7 - - - - - - - 10.1 1013.3 0.0
06/02:00am SE 6 8 - - - - - - - 10.5 1013.7 0.0
06/01:30am SE 6 9 - - - - - - - 11.0 1014.3 0.0
06/01:00am SE 7 9 - - - - - - - 11.4 1014.7 0.0
06/12:30am SE 6 9 - - - - - - - 12.2 1015.1 0.0
06/12:00am SE 7 10 - - - - - - - 12.6 1015.6 0.0
 
Date/Time
CDT
Wind Sea
Height
m
Swell Vis
km
Cloud Weather Temp
°C
Press
MSL
hPa
Rain since
9am
mm
Dir  Spd
kts
Gust
kts
Height
m
Period
s
Dir
05/11:30pm SE 8 10 - - - - - - - 13.1 1016.0 0.0
05/11:00pm SE 8 12 - - - - - - - 13.4 1016.2 0.0
05/10:30pm SSE 7 13 - - - - - - - 13.4 1016.3 0.0
05/10:00pm SSE 9 12 - - - - - - - 13.4 1016.6 0.0
05/09:30pm SSE 10 13 - - - - - - - 13.7 1016.8 0.0
05/09:00pm SSE 10 13 - - - - - - - 13.8 1016.8 0.0
05/08:30pm SSE 11 17 - - - - - - - 14.1 1016.9 0.0
05/08:00pm SSE 11 18 - - - - - - - 14.5 1016.9 0.0
05/07:30pm S 14 19 - - - - - - - 15.0 1016.9 0.0
05/07:00pm S 14 18 - - - - - - - 15.6 1017.0 0.0
05/06:30pm S 12 17 - - - - - - - 16.6 1017.2 0.0
05/06:00pm S 15 20 - - - - - - - 16.3 1017.3 0.0
05/05:30pm S 15 20 - - - - - - - 16.7 1017.6 0.0
05/05:00pm S 14 20 - - - - - - - 17.3 1017.7 0.0
05/04:30pm S 14 19 - - - - - - - 17.4 1017.9 0.0
05/04:00pm S 14 20 - - - - - - - 17.6 1018.1 0.0
05/03:30pm S 14 20 - - - - - - - 17.9 1018.4 0.0
05/03:00pm S 14 21 - - - - - - - 17.7 1018.7 0.0
05/02:30pm S 13 18 - - - - - - - 17.8 1019.2 0.0
05/02:00pm S 13 19 - - - - - - - 17.8 1019.1 0.0
05/01:30pm S 14 19 - - - - - - - 18.0 1019.4 0.0
05/01:00pm S 12 19 - - - - - - - 17.5 1019.6 0.0
05/12:30pm S 12 17 - - - - - - - 17.3 1020.1 0.0
05/12:00pm S 10 16 - - - - - - - 17.8 1020.3 0.0
05/11:30am S 7 12 - - - - - - - 17.0 1020.7 0.0
05/11:00am S 8 15 - - - - - - - 17.5 1021.2 0.0
05/10:30am S 7 11 - - - - - - - 16.9 1021.7 0.0
05/10:00am SSE 6 11 - - - - - - - 15.7 1022.1 0.0
05/09:30am SE 7 10 - - - - - - - 14.8 1022.3 0.0
05/09:00am ESE 6 10 - - - - - - - 15.4 1022.3 0.0
05/08:30am ESE 7 11 - - - - - - - 14.6 1022.5 0.0
05/08:00am E 7 9 - - - - - - - 13.9 1022.3 0.0
05/07:30am ENE 5 8 - - - - - - - 11.4 1022.2 0.0
05/07:00am ENE 5 7 - - - - - - - 10.8 1022.1 0.0
05/06:30am ENE 4 6 - - - - - - - 10.1 1021.9 0.0
05/06:00am E 5 7 - - - - - - - 9.6 1021.6 0.0
05/05:30am E 3 5 - - - - - - - 9.0 1021.2 0.0
05/05:00am E 5 8 - - - - - - - 9.6 1020.9 0.0
05/04:30am E 4 6 - - - - - - - 9.8 1021.0 0.0
05/04:00am ESE 5 7 - - - - - - - 9.9 1021.0 0.0
05/03:30am E 4 6 - - - - - - - 9.9 1021.2 0.0
05/03:00am ESE 4 5 - - - - - - - 10.2 1021.4 0.0
05/02:30am ESE 3 5 - - - - - - - 10.4 1021.7 0.0
05/02:00am ESE 4 5 - - - - - - - 10.8 1021.9 0.0
05/01:30am ESE 4 6 - - - - - - - 11.2 1022.1 0.0
05/01:00am SSE 6 8 - - - - - - - 11.9 1022.4 0.0
05/12:30am S 4 5 - - - - - - - 10.4 1022.9 0.0
05/12:00am S 5 6 - - - - - - - 10.8 1022.9 0.0
 
Date/Time
CDT
Wind Sea
Height
m
Swell Vis
km
Cloud Weather Temp
°C
Press
MSL
hPa
Rain since
9am
mm
Dir  Spd
kts
Gust
kts
Height
m
Period
s
Dir
04/11:30pm SSE 5 7 - - - - - - - 11.4 1023.0 0.0
04/11:00pm SSE 6 9 - - - - - - - 13.0 1022.9 0.0
04/10:30pm SSE 7 9 - - - - - - - 13.7 1022.9 0.0
04/10:00pm SSE 9 14 - - - - - - - 14.7 1022.8 0.0
04/09:30pm SSE 6 11 - - - - - - - 14.7 1022.5 0.0
04/09:00pm S 5 7 - - - - - - - 14.6 1022.5 0.0
04/08:30pm S 6 10 - - - - - - - 14.7 1022.4 0.0
04/08:00pm SSE 8 11 - - - - - - - 15.0 1022.4 0.0
04/07:30pm S 8 10 - - - - - - - 15.0 1022.3 0.0
04/07:00pm S 9 12 - - - - - - - 15.4 1022.2 0.0
04/06:30pm SSW 8 13 - - - - - - - 15.6 1022.0 0.0
04/06:00pm SSW 9 15 - - - - - - - 16.1 1021.7 0.0
04/05:30pm SSW 10 14 - - - - - - - 16.5 1021.6 0.0
04/05:00pm SSW 9 13 - - - - - - - 16.9 1021.8 0.0
04/04:30pm SSW 9 14 - - - - - - - 17.3 1021.8 0.0
04/04:00pm SSW 9 15 - - - - - - - 17.0 1021.9 0.0
04/03:30pm SSW 10 15 - - - - - - - 16.8 1022.2 0.0
04/03:00pm SSW 11 17 - - - - - - - 16.2 1022.4 0.0
04/02:30pm SSW 11 19 - - - - - - - 18.2 1022.4 0.0
04/02:00pm SW 12 18 - - - - - - - 17.3 1022.7 0.0
04/01:30pm SSW 13 18 - - - - - - - 17.6 1022.8 0.0
04/01:00pm SSW 15 19 - - - - - - - 17.2 1022.8 0.0
04/12:30pm SSW 12 17 - - - - - - - 18.1 1022.9 0.0
04/12:00pm SSW 11 15 - - - - - - - 17.7 1022.9 0.0
04/11:30am SSW 11 16 - - - - - - - 16.8 1023.0 0.0
04/11:00am SSW 10 15 - - - - - - - 16.7 1023.0 0.0
04/10:30am SSW 10 15 - - - - - - - 17.2 1022.8 0.0
04/10:00am SSW 11 16 - - - - - - - 16.4 1022.9 0.0
04/09:30am SSW 12 17 - - - - - - - 15.5 1022.8 0.0
04/09:00am SSW 11 15 - - - - - - - 16.7 1022.5 0.0
04/08:30am SSW 10 15 - - - - - - - 15.2 1022.1 0.0
04/08:00am SSW 12 16 - - - - - - - 15.9 1021.6 0.0
04/07:30am SW 9 14 - - - - - - - 14.7 1021.4 0.0
04/07:00am SW 9 13 - - - - - - - 14.6 1021.1 0.0
04/06:30am SW 9 15 - - - - - - - 14.6 1020.7 0.0
04/06:00am SW 8 14 - - - - - - - 14.0 1020.6 0.0
04/05:30am SW 7 12 - - - - - - - 14.1 1020.6 0.0
04/05:00am WSW 7 11 - - - - - - - 13.9 1020.4 0.0
04/04:30am SW 7 11 - - - - - - - 13.1 1020.2 0.0
04/04:00am SSW 8 13 - - - - - - - 14.0 1020.2 0.0
04/03:30am SW 9 15 - - - - - - - 14.1 1020.1 0.0
04/03:00am SW 8 11 - - - - - - - 13.4 1020.2 0.0
04/02:30am SW 10 15 - - - - - - - 14.3 1020.3 0.0
04/02:00am SW 5 8 - - - - - - - 14.0 1020.5 0.0
04/01:30am WSW 2 5 - - - - - - - 13.5 1020.7 0.0
04/01:00am SW 4 7 - - - - - - - 13.1 1020.9 0.0
04/12:30am SW 3 5 - - - - - - - 12.5 1021.1 0.0
04/12:00am SW 3 5 - - - - - - - 13.1 1021.3 0.0
 
Date/Time
CDT
Wind Sea
Height
m
Swell Vis
km
Cloud Weather Temp
°C
Press
MSL
hPa
Rain since
9am
mm
Dir  Spd
kts
Gust
kts
Height
m
Period
s
Dir
03/11:30pm SSW 6 8 - - - - - - - 13.0 1021.4 0.0
03/11:00pm SSW 6 9 - - - - - - - 13.4 1021.5 0.0
03/10:30pm SSW 6 8 - - - - - - - 13.2 1021.6 0.0
03/10:00pm SSW 7 9 - - - - - - - 13.6 1021.6 0.0
03/09:30pm SSW 6 9 - - - - - - - 13.6 1021.4 0.0
03/09:00pm SSW 8 12 - - - - - - - 13.8 1021.3 0.0
03/08:30pm SSW 5 9 - - - - - - - 12.9 1021.1 0.0
03/08:00pm SSW 8 11 - - - - - - - 13.8 1020.8 0.0
03/07:30pm SSW 8 13 - - - - - - - 14.1 1020.7 0.0
03/07:00pm S 9 14 - - - - - - - 14.9 1020.5 0.0
03/06:30pm SSW 10 15 - - - - - - - 15.7 1020.4 0.0
03/06:00pm S 12 17 - - - - - - - 15.7 1020.3 0.0
03/05:30pm SSW 11 17 - - - - - - - 16.0 1020.5 0.0
03/05:00pm SSW 12 17 - - - - - - - 16.6 1020.6 0.0

Other formats

Comma delimited format used in spreadsheet applications
http://www.bom.gov.au/fwo/IDS60701/IDS60701.95816.axf

JavaScript Object Notation format (JSON) in row-major order
http://www.bom.gov.au/fwo/IDS60701/IDS60701.95816.json

Data quality

Most of these data are generated automatically and are frequently updated. Quality checks on data are not normally performed. It is possible for incorrect values to appear. Refer to information at About Latest Weather Observations and please check the disclaimer before using these data.